PWSweather.com
Personal Weather Stations
Station Observations
KCAEXETE14
Park Place, Exeter, CA 93221

Park PlaceExeter, CA 93221

Lat: 36.283487, Lon: -119.152218

Elevation: 380

Station Type: Davis Vantage Vue

http://weather.manyjourneys.com/

Latest ConditionsUpdated 7:50:01 AM PDT Monday, Oct 23, 2017
Currently Today's Max Today's Min Today's Average
Temperature 47.3°F8.5°C 52.0°F11.1°C 46.1°F7.8°C 48.4°F9.1°C
Dew Point 45.4°F7.4°C 48.9°F9.4°C 43.3°F6.3°C 45.8°F7.7°C
Winds Calm Calm Calm SSWCalm SSW - Calm Calm
Wind Gusts -- -- - -
Humidity 93% 93% 87% 91%
Pressure 30.28 in1025.4 mb 30.28 in1025.4 mb 30.26 in1024.7 mb -
Hour Temp Dew Point Humidity Winds Wind Gusts Pressure Precip Precip Rate Daily Precip Total
07:50 AM 47.3°F8.5°C 45.4°F7.4°C 93% Calm Calm -- 30.28 in1025.4 mb - 0.00 in0.0 mm 0.00 in0.0 mm
07:45 AM 46.8°F8.2°C 44.6°F7.0°C 92% Calm Calm -- 30.28 in1025.4 mb - 0.00 in0.0 mm 0.00 in0.0 mm
07:40 AM 46.7°F8.2°C 44.5°F6.9°C 92% Calm Calm -- 30.28 in1025.4 mb - 0.00 in0.0 mm 0.00 in0.0 mm
07:35 AM 46.7°F8.2°C 44.5°F6.9°C 92% Calm Calm -- 30.28 in1025.4 mb - 0.00 in0.0 mm 0.00 in0.0 mm
07:30 AM 46.6°F8.1°C 44.4°F6.9°C 92% Calm Calm -- 30.28 in1025.4 mb - 0.00 in0.0 mm 0.00 in0.0 mm
07:25 AM 46.7°F8.2°C 44.5°F6.9°C 92% Calm Calm -- 30.28 in1025.4 mb - 0.00 in0.0 mm 0.00 in0.0 mm
07:20 AM 46.7°F8.2°C 44.5°F6.9°C 92% Calm Calm -- 30.28 in1025.4 mb - 0.00 in0.0 mm 0.00 in0.0 mm
07:15 AM 46.5°F8.1°C 44.3°F6.8°C 92% Calm Calm -- 30.27 in1025.1 mb - 0.00 in0.0 mm 0.00 in0.0 mm
07:10 AM 46.7°F8.2°C 44.5°F6.9°C 92% Calm Calm -- 30.27 in1025.1 mb - 0.00 in0.0 mm 0.00 in0.0 mm
07:05 AM 46.7°F8.2°C 44.5°F6.9°C 92% Calm Calm -- 30.27 in1025.1 mb - 0.00 in0.0 mm 0.00 in0.0 mm
07:00 AM 46.6°F8.1°C 44.4°F6.9°C 92% Calm Calm -- 30.27 in1025.1 mb - 0.00 in0.0 mm 0.00 in0.0 mm
06:55 AM 46.4°F8.0°C 44.2°F6.8°C 92% Calm Calm -- 30.27 in1025.1 mb - 0.00 in0.0 mm 0.00 in0.0 mm
06:50 AM 46.2°F7.9°C 43.7°F6.5°C 91% Calm Calm -- 30.27 in1025.1 mb - 0.00 in0.0 mm 0.00 in0.0 mm
06:45 AM 46.3°F7.9°C 43.8°F6.6°C 91% Calm Calm -- 30.27 in1025.1 mb - 0.00 in0.0 mm 0.00 in0.0 mm
06:40 AM 46.2°F7.9°C 43.7°F6.5°C 91% Calm Calm -- 30.27 in1025.1 mb - 0.00 in0.0 mm 0.00 in0.0 mm
06:35 AM 46.1°F7.8°C 43.6°F6.4°C 91% Calm Calm -- 30.27 in1025.1 mb - 0.00 in0.0 mm 0.00 in0.0 mm
06:30 AM 46.1°F7.8°C 43.3°F6.3°C 90% Calm Calm -- 30.27 in1025.1 mb - 0.00 in0.0 mm 0.00 in0.0 mm
06:25 AM 46.4°F8.0°C 43.6°F6.4°C 90% Calm Calm -- 30.27 in1025.1 mb - 0.00 in0.0 mm 0.00 in0.0 mm
06:20 AM 46.8°F8.2°C 44.6°F7.0°C 92% Calm Calm -- 30.27 in1025.1 mb - 0.00 in0.0 mm 0.00 in0.0 mm
06:15 AM 46.8°F8.2°C 44.6°F7.0°C 92% Calm Calm -- 30.27 in1025.1 mb - 0.00 in0.0 mm 0.00 in0.0 mm
06:10 AM 46.8°F8.2°C 44.6°F7.0°C 92% Calm Calm -- 30.27 in1025.1 mb - 0.00 in0.0 mm 0.00 in0.0 mm
06:05 AM 46.8°F8.2°C 44.6°F7.0°C 92% Calm Calm -- 30.27 in1025.1 mb - 0.00 in0.0 mm 0.00 in0.0 mm
06:00 AM 47.0°F8.3°C 44.8°F7.1°C 92% Calm Calm -- 30.27 in1025.1 mb - 0.00 in0.0 mm 0.00 in0.0 mm
05:55 AM 47.1°F8.4°C 44.9°F7.2°C 92% Calm Calm -- 30.27 in1025.1 mb - 0.00 in0.0 mm 0.00 in0.0 mm
05:50 AM 47.1°F8.4°C 44.9°F7.2°C 92% Calm Calm -- 30.27 in1025.1 mb - 0.00 in0.0 mm 0.00 in0.0 mm
05:45 AM 47.3°F8.5°C 45.1°F7.3°C 92% Calm Calm -- 30.27 in1025.1 mb - 0.00 in0.0 mm 0.00 in0.0 mm
05:40 AM 47.4°F8.6°C 45.2°F7.3°C 92% Calm Calm -- 30.27 in1025.1 mb - 0.00 in0.0 mm 0.00 in0.0 mm
05:35 AM 47.4°F8.6°C 45.2°F7.3°C 92% Calm Calm -- 30.27 in1025.1 mb - 0.00 in0.0 mm 0.00 in0.0 mm
05:30 AM 47.3°F8.5°C 45.1°F7.3°C 92% Calm Calm -- 30.27 in1025.1 mb - 0.00 in0.0 mm 0.00 in0.0 mm
05:25 AM 47.3°F8.5°C 45.1°F7.3°C 92% Calm Calm -- 30.27 in1025.1 mb - 0.00 in0.0 mm 0.00 in0.0 mm
05:20 AM 47.1°F8.4°C 44.6°F7.0°C 91% Calm Calm -- 30.27 in1025.1 mb - 0.00 in0.0 mm 0.00 in0.0 mm
05:15 AM 47.2°F8.4°C 45.0°F7.2°C 92% Calm Calm -- 30.27 in1025.1 mb - 0.00 in0.0 mm 0.00 in0.0 mm
05:10 AM 47.2°F8.4°C 44.9°F7.2°C 92% Calm Calm -- 30.27 in1025.1 mb - 0.00 in0.0 mm 0.00 in0.0 mm
05:05 AM 47.1°F8.4°C 44.9°F7.2°C 92% Calm Calm -- 30.27 in1025.1 mb - 0.00 in0.0 mm 0.00 in0.0 mm
05:00 AM 47.2°F8.4°C 45.0°F7.2°C 92% Calm Calm -- 30.27 in1025.1 mb - 0.00 in0.0 mm 0.00 in0.0 mm
04:55 AM 47.2°F8.4°C 45.0°F7.2°C 92% Calm Calm -- 30.26 in1024.7 mb - 0.00 in0.0 mm 0.00 in0.0 mm
04:50 AM 47.2°F8.4°C 45.0°F7.2°C 92% Calm Calm -- 30.26 in1024.7 mb - 0.00 in0.0 mm 0.00 in0.0 mm
04:45 AM 47.2°F8.4°C 45.0°F7.2°C 92% Calm Calm -- 30.26 in1024.7 mb - 0.00 in0.0 mm 0.00 in0.0 mm
04:40 AM 47.2°F8.4°C 45.0°F7.2°C 92% Calm Calm -- 30.26 in1024.7 mb - 0.00 in0.0 mm 0.00 in0.0 mm
04:35 AM 46.9°F8.3°C 44.7°F7.1°C 92% Calm Calm -- 30.26 in1024.7 mb - 0.00 in0.0 mm 0.00 in0.0 mm
04:30 AM 46.7°F8.2°C 44.2°F6.8°C 91% Calm Calm -- 30.26 in1024.7 mb - 0.00 in0.0 mm 0.00 in0.0 mm
04:25 AM 46.5°F8.1°C 44.0°F6.7°C 91% Calm Calm -- 30.26 in1024.7 mb - 0.00 in0.0 mm 0.00 in0.0 mm
04:20 AM 46.5°F8.1°C 44.1°F6.7°C 91% Calm Calm -- 30.26 in1024.7 mb - 0.00 in0.0 mm 0.00 in0.0 mm
04:15 AM 46.6°F8.1°C 43.8°F6.6°C 90% Calm Calm -- 30.26 in1024.7 mb - 0.00 in0.0 mm 0.00 in0.0 mm
04:10 AM 46.8°F8.2°C 44.0°F6.7°C 90% Calm Calm -- 30.26 in1024.7 mb - 0.00 in0.0 mm 0.00 in0.0 mm
04:05 AM 47.1°F8.4°C 44.3°F6.8°C 90% Calm Calm -- 30.26 in1024.7 mb - 0.00 in0.0 mm 0.00 in0.0 mm
04:00 AM 47.5°F8.6°C 45.0°F7.2°C 91% Calm Calm -- 30.26 in1024.7 mb - 0.00 in0.0 mm 0.00 in0.0 mm
03:55 AM 47.5°F8.6°C 45.0°F7.2°C 91% Calm Calm -- 30.26 in1024.7 mb - 0.00 in0.0 mm 0.00 in0.0 mm
03:50 AM 47.6°F8.7°C 45.1°F7.3°C 91% Calm Calm -- 30.26 in1024.7 mb - 0.00 in0.0 mm 0.00 in0.0 mm
03:45 AM 47.8°F8.8°C 45.6°F7.6°C 92% Calm Calm -- 30.26 in1024.7 mb - 0.00 in0.0 mm 0.00 in0.0 mm
03:40 AM 47.7°F8.7°C 45.2°F7.3°C 91% Calm Calm -- 30.26 in1024.7 mb - 0.00 in0.0 mm 0.00 in0.0 mm
03:35 AM 47.9°F8.8°C 45.4°F7.4°C 91% Calm Calm -- 30.26 in1024.7 mb - 0.00 in0.0 mm 0.00 in0.0 mm
03:30 AM 47.9°F8.8°C 45.4°F7.4°C 91% Calm Calm -- 30.26 in1024.7 mb - 0.00 in0.0 mm 0.00 in0.0 mm
03:25 AM 47.9°F8.8°C 45.4°F7.4°C 91% Calm Calm -- 30.26 in1024.7 mb - 0.00 in0.0 mm 0.00 in0.0 mm
03:20 AM 48.0°F8.9°C 45.2°F7.3°C 90% Calm Calm -- 30.26 in1024.7 mb - 0.00 in0.0 mm 0.00 in0.0 mm
03:15 AM 48.2°F9.0°C 45.4°F7.4°C 90% Calm Calm -- 30.27 in1025.1 mb - 0.00 in0.0 mm 0.00 in0.0 mm
03:10 AM 48.3°F9.1°C 45.5°F7.5°C 90% Calm Calm -- 30.26 in1024.7 mb - 0.00 in0.0 mm 0.00 in0.0 mm
03:05 AM 48.4°F9.1°C 45.6°F7.6°C 90% Calm Calm -- 30.27 in1025.1 mb - 0.00 in0.0 mm 0.00 in0.0 mm
03:00 AM 48.6°F9.2°C 46.1°F7.8°C 91% Calm Calm -- 30.27 in1025.1 mb - 0.00 in0.0 mm 0.00 in0.0 mm
02:55 AM 48.7°F9.3°C 46.2°F7.9°C 91% Calm Calm -- 30.26 in1024.7 mb - 0.00 in0.0 mm 0.00 in0.0 mm
02:50 AM 48.7°F9.3°C 45.9°F7.7°C 90% Calm Calm -- 30.27 in1025.1 mb - 0.00 in0.0 mm 0.00 in0.0 mm
02:45 AM 48.8°F9.3°C 46.0°F7.8°C 90% Calm Calm -- 30.27 in1025.1 mb - 0.00 in0.0 mm 0.00 in0.0 mm
02:40 AM 48.9°F9.4°C 46.1°F7.8°C 90% Calm Calm -- 30.27 in1025.1 mb - 0.00 in0.0 mm 0.00 in0.0 mm
02:35 AM 49.0°F9.4°C 46.2°F7.9°C 90% Calm Calm -- 30.27 in1025.1 mb - 0.00 in0.0 mm 0.00 in0.0 mm
02:30 AM 49.1°F9.5°C 46.3°F7.9°C 90% Calm Calm -- 30.27 in1025.1 mb - 0.00 in0.0 mm 0.00 in0.0 mm
02:25 AM 49.2°F9.6°C 46.1°F7.8°C 89% Calm Calm -- 30.27 in1025.1 mb - 0.00 in0.0 mm 0.00 in0.0 mm
02:20 AM 49.2°F9.6°C 46.1°F7.8°C 89% Calm Calm -- 30.27 in1025.1 mb - 0.00 in0.0 mm 0.00 in0.0 mm
02:15 AM 49.2°F9.6°C 46.1°F7.8°C 89% Calm Calm -- 30.27 in1025.1 mb - 0.00 in0.0 mm 0.00 in0.0 mm
02:10 AM 49.2°F9.6°C 46.1°F7.8°C 89% Calm Calm -- 30.27 in1025.1 mb - 0.00 in0.0 mm 0.00 in0.0 mm
02:05 AM 49.3°F9.6°C 46.2°F7.9°C 89% Calm Calm -- 30.27 in1025.1 mb - 0.00 in0.0 mm 0.00 in0.0 mm
02:00 AM 49.7°F9.8°C 46.3°F7.9°C 88% Calm Calm -- 30.27 in1025.1 mb - 0.00 in0.0 mm 0.00 in0.0 mm
01:55 AM 50.1°F10.1°C 47.0°F8.3°C 89% Calm Calm -- 30.27 in1025.1 mb - 0.00 in0.0 mm 0.00 in0.0 mm
01:50 AM 50.2°F10.1°C 47.1°F8.4°C 89% Calm Calm -- 30.27 in1025.1 mb - 0.00 in0.0 mm 0.00 in0.0 mm
01:45 AM 50.4°F10.2°C 47.3°F8.5°C 89% Calm Calm -- 30.27 in1025.1 mb - 0.00 in0.0 mm 0.00 in0.0 mm
01:40 AM 50.6°F10.3°C 47.5°F8.6°C 89% Calm Calm -- 30.27 in1025.1 mb - 0.00 in0.0 mm 0.00 in0.0 mm
01:35 AM 50.8°F10.4°C 47.7°F8.7°C 89% Calm Calm -- 30.27 in1025.1 mb - 0.00 in0.0 mm 0.00 in0.0 mm
01:30 AM 51.1°F10.6°C 47.7°F8.7°C 88% Calm Calm -- 30.27 in1025.1 mb - 0.00 in0.0 mm 0.00 in0.0 mm
01:25 AM 51.4°F10.8°C 48.0°F8.9°C 88% Calm Calm -- 30.27 in1025.1 mb - 0.00 in0.0 mm 0.00 in0.0 mm
01:20 AM 51.5°F10.8°C 47.7°F8.7°C 87% Calm Calm -- 30.27 in1025.1 mb - 0.00 in0.0 mm 0.00 in0.0 mm
01:15 AM 51.5°F10.8°C 48.1°F8.9°C 88% Calm Calm -- 30.27 in1025.1 mb - 0.00 in0.0 mm 0.00 in0.0 mm
01:10 AM 51.6°F10.9°C 48.5°F9.2°C 89% Calm Calm -- 30.27 in1025.1 mb - 0.00 in0.0 mm 0.00 in0.0 mm
01:05 AM 51.6°F10.9°C 48.8°F9.3°C 90% Calm Calm -- 30.27 in1025.1 mb - 0.00 in0.0 mm 0.00 in0.0 mm
01:00 AM 51.4°F10.8°C 48.9°F9.4°C 91% Calm Calm -- 30.27 in1025.1 mb - 0.00 in0.0 mm 0.00 in0.0 mm
12:55 AM 51.2°F10.7°C 48.4°F9.1°C 90% Calm Calm -- 30.27 in1025.1 mb - 0.00 in0.0 mm 0.00 in0.0 mm
12:50 AM 51.0°F10.6°C 48.2°F9.0°C 90% Calm Calm -- 30.27 in1025.1 mb - 0.00 in0.0 mm 0.00 in0.0 mm
12:45 AM 51.0°F10.6°C 48.2°F9.0°C 90% Calm Calm -- 30.27 in1025.1 mb - 0.00 in0.0 mm 0.00 in0.0 mm
12:40 AM 50.9°F10.5°C 47.8°F8.8°C 89% Calm Calm -- 30.27 in1025.1 mb - 0.00 in0.0 mm 0.00 in0.0 mm
12:35 AM 51.0°F10.6°C 47.6°F8.7°C 88% Calm Calm -- 30.27 in1025.1 mb - 0.00 in0.0 mm 0.00 in0.0 mm
12:30 AM 51.4°F10.8°C 48.0°F8.9°C 88% Calm Calm -- 30.27 in1025.1 mb - 0.00 in0.0 mm 0.00 in0.0 mm
12:25 AM 51.6°F10.9°C 48.8°F9.3°C 90% Calm Calm -- 30.27 in1025.1 mb - 0.00 in0.0 mm 0.00 in0.0 mm
12:20 AM 51.7°F10.9°C 48.6°F9.2°C 89% Calm Calm -- 30.27 in1025.1 mb - 0.00 in0.0 mm 0.00 in0.0 mm
12:15 AM 51.8°F11.0°C 48.7°F9.3°C 89% Calm Calm -- 30.27 in1025.1 mb - 0.00 in0.0 mm 0.00 in0.0 mm
12:10 AM 51.9°F11.1°C 48.8°F9.3°C 89% Calm Calm -- 30.27 in1025.1 mb - 0.00 in0.0 mm 0.00 in0.0 mm
12:05 AM 51.9°F11.1°C 48.8°F9.3°C 89% Calm Calm -- 30.27 in1025.1 mb - 0.00 in0.0 mm 0.00 in0.0 mm
12:00 AM 52.0°F11.1°C 48.9°F9.4°C 89% Calm Calm -- 30.27 in1025.1 mb - 0.00 in0.0 mm 0.00 in0.0 mm